Chicago Park, California
Current Conditions -  °F | °C
As of 9:20 PM on Friday 19 Dec 2014 (Local Time) from KGOO Reporting Station
Overcast Overcast  
Wind Chill: 41°   Ceiling: 200
Heat Index: 45°   Visibility: 6mi
Dew Point: 45°   Wind: 6mph
Humidity: 100%   Direction: 160°SSE
Pressure: 30.15"   Gusts: NA
Location:  39.15°N, 120.97°W
Report Text: KGOO 200520Z AUTO 16005KT 6SM OVC002 07/07 A3015 RMK AO1
Loading
Personal Weather Stations






























Interactive Weather Map New forecast layout! Learn more

10-Day Weather Forecast

Advertisements
Track Severe Weather on mobile